createdAt,value
2022-10-24T00:00:28.792Z,77.90
2022-10-24T00:02:55.597Z,78.35
2022-10-24T00:05:22.312Z,77.83
2022-10-24T00:07:50.521Z,75.72
2022-10-24T00:10:17.774Z,73.98
2022-10-24T00:12:45.564Z,74.02
2022-10-24T00:15:12.803Z,73.38
2022-10-24T00:17:39.577Z,73.97
2022-10-24T00:20:07.783Z,75.48
2022-10-24T00:22:34.510Z,74.65
2022-10-24T00:25:01.229Z,76.61
2022-10-24T00:27:27.882Z,75.30
2022-10-24T00:29:54.479Z,75.67
2022-10-24T00:32:21.420Z,74.20
2022-10-24T00:34:48.079Z,74.56
2022-10-24T00:37:14.717Z,72.06
2022-10-24T00:39:41.333Z,74.32
2022-10-24T00:42:07.944Z,74.67
2022-10-24T00:44:38.804Z,72.58
2022-10-24T00:47:16.235Z,73.08
2022-10-24T00:50:03.985Z,73.78
2022-10-24T00:52:36.578Z,74.64
2022-10-24T00:55:06.294Z,72.68
2022-10-24T00:57:46.105Z,72.17
2022-10-24T01:00:19.766Z,72.68
2022-10-24T01:02:47.374Z,74.03
2022-10-24T01:05:16.426Z,74.43
2022-10-24T01:08:04.525Z,75.84
2022-10-24T01:10:49.221Z,73.84
2022-10-24T01:13:57.232Z,72.13
2022-10-24T01:16:49.046Z,74.65
2022-10-24T01:19:52.949Z,76.39
2022-10-24T01:22:31.959Z,74.92
2022-10-24T01:25:39.778Z,73.80
2022-10-24T01:28:15.990Z,76.13
2022-10-24T01:30:49.406Z,75.73
2022-10-24T01:33:19.242Z,75.32
2022-10-24T01:36:09.946Z,74.14
2022-10-24T01:38:57.109Z,72.55
2022-10-24T01:41:28.977Z,75.03
2022-10-24T01:44:18.472Z,74.72
2022-10-24T01:46:52.997Z,73.79
2022-10-24T01:49:23.088Z,73.87
2022-10-24T01:51:55.746Z,72.49
2022-10-24T01:54:23.004Z,73.78
2022-10-24T01:56:50.899Z,72.84
2022-10-24T01:59:26.322Z,75.14
2022-10-24T02:02:01.772Z,76.28
2022-10-24T02:04:34.068Z,77.47
2022-10-24T02:07:06.994Z,76.47
2022-10-24T02:09:38.398Z,76.88
2022-10-24T02:12:10.263Z,75.29
2022-10-24T02:14:46.250Z,75.34
2022-10-24T02:17:12.899Z,74.73
2022-10-24T02:19:39.653Z,72.37
2022-10-24T02:22:26.452Z,74.92
2022-10-24T02:25:03.414Z,75.22
2022-10-24T02:28:11.865Z,74.25
2022-10-24T02:30:45.625Z,75.30
2022-10-24T02:33:14.808Z,73.76
2022-10-24T02:35:44.514Z,73.91
2022-10-24T02:38:15.297Z,74.39
2022-10-24T02:40:46.317Z,75.59
2022-10-24T02:43:14.922Z,75.35
2022-10-24T02:45:41.561Z,76.06
2022-10-24T02:48:16.677Z,76.04
2022-10-24T02:50:44.588Z,76.85
2022-10-24T02:53:15.880Z,74.93
2022-10-24T02:55:42.563Z,74.72
2022-10-24T02:58:09.223Z,75.98
2022-10-24T03:00:35.940Z,76.00
2022-10-24T03:03:02.657Z,76.55
2022-10-24T03:05:29.296Z,76.79
2022-10-24T03:07:56.009Z,78.19
2022-10-24T03:10:22.734Z,76.74
2022-10-24T03:12:49.419Z,77.86
2022-10-24T03:15:16.192Z,78.05
2022-10-24T03:17:43.194Z,77.77
2022-10-24T03:20:10.459Z,76.89
2022-10-24T03:22:37.115Z,77.12
2022-10-24T03:25:03.954Z,75.84
2022-10-24T03:27:30.649Z,76.01
2022-10-24T03:29:57.285Z,74.77
2022-10-24T03:32:24.021Z,75.05
2022-10-24T03:34:50.739Z,74.80
2022-10-24T03:37:17.875Z,74.49
2022-10-24T03:39:44.798Z,74.08
2022-10-24T03:42:11.759Z,74.94
2022-10-24T03:44:38.484Z,73.11
2022-10-24T03:47:05.192Z,74.78
2022-10-24T03:49:31.860Z,76.09
2022-10-24T03:51:58.466Z,75.96
2022-10-24T03:54:25.226Z,76.92
2022-10-24T03:56:51.908Z,78.76
2022-10-24T03:59:18.634Z,76.42
2022-10-24T04:01:45.325Z,78.71
2022-10-24T04:04:11.987Z,80.07
2022-10-24T04:06:38.786Z,78.69
2022-10-24T04:09:05.464Z,77.22
2022-10-24T04:11:32.406Z,74.35
2022-10-24T04:14:20.300Z,76.76
2022-10-24T04:16:46.951Z,76.49
2022-10-24T04:19:13.542Z,77.15
2022-10-24T04:21:40.441Z,79.56
2022-10-24T04:24:07.168Z,80.39
2022-10-24T04:26:33.814Z,81.28
2022-10-24T04:29:00.420Z,81.52
2022-10-24T04:31:27.152Z,79.70
2022-10-24T04:33:53.765Z,79.75
2022-10-24T04:36:20.362Z,79.42
2022-10-24T04:38:47.086Z,78.07
2022-10-24T04:41:13.759Z,77.01
2022-10-24T04:43:40.528Z,76.84
2022-10-24T04:46:07.371Z,75.35
2022-10-24T04:48:34.740Z,75.69
2022-10-24T04:51:01.778Z,75.32
2022-10-24T04:53:28.429Z,74.90
2022-10-24T04:55:55.072Z,73.66
2022-10-24T04:58:21.708Z,73.54
2022-10-24T05:00:48.382Z,73.65
2022-10-24T05:03:15.422Z,74.42
2022-10-24T05:05:42.052Z,74.59
2022-10-24T05:08:08.669Z,75.11
2022-10-24T05:10:35.324Z,75.77
2022-10-24T05:13:01.963Z,74.35
2022-10-24T05:15:28.605Z,75.13
2022-10-24T05:17:55.879Z,74.80
2022-10-24T05:20:22.480Z,77.10
2022-10-24T05:22:49.091Z,75.83
2022-10-24T05:25:15.798Z,74.72
2022-10-24T05:27:42.384Z,74.09
2022-10-24T05:30:10.028Z,74.35
2022-10-24T05:32:39.554Z,75.13
2022-10-24T05:35:07.642Z,74.93
2022-10-24T05:37:34.292Z,79.02
2022-10-24T05:40:00.888Z,75.37
2022-10-24T05:42:27.940Z,76.29
2022-10-24T05:44:54.521Z,75.08
2022-10-24T05:47:22.742Z,74.57
2022-10-24T05:49:51.291Z,75.05
2022-10-24T05:52:17.891Z,74.53
2022-10-24T05:54:55.136Z,75.50
2022-10-24T05:57:29.641Z,76.78
2022-10-24T05:59:56.277Z,76.55
2022-10-24T06:02:23.028Z,75.96
2022-10-24T06:04:49.885Z,74.74
2022-10-24T06:07:17.664Z,74.41
2022-10-24T06:09:44.610Z,74.00
2022-10-24T06:12:12.291Z,74.71
2022-10-24T06:14:40.463Z,73.50
2022-10-24T06:17:07.639Z,73.64
2022-10-24T06:19:34.749Z,73.04
2022-10-24T06:22:01.468Z,73.53
2022-10-24T06:24:29.127Z,72.98
2022-10-24T06:26:55.739Z,74.26
2022-10-24T06:29:22.320Z,75.17
2022-10-24T06:31:48.993Z,77.61
2022-10-24T06:34:15.644Z,78.33
2022-10-24T06:36:42.255Z,77.90
2022-10-24T06:39:08.863Z,77.99
2022-10-24T06:41:35.430Z,79.57
2022-10-24T06:44:05.759Z,79.62
2022-10-24T06:46:34.353Z,80.43
2022-10-24T06:49:01.128Z,81.31
2022-10-24T06:51:27.694Z,80.95
2022-10-24T06:53:54.253Z,80.82
2022-10-24T06:56:21.028Z,80.69
2022-10-24T06:58:47.598Z,78.66
2022-10-24T07:01:19.094Z,79.82
2022-10-24T07:03:46.602Z,76.97
2022-10-24T07:06:24.947Z,75.60
2022-10-24T07:08:54.493Z,75.30
2022-10-24T07:11:21.537Z,73.29
2022-10-24T07:13:48.431Z,73.84
2022-10-24T07:16:15.383Z,75.35
2022-10-24T07:18:45.234Z,75.04
2022-10-24T07:21:17.467Z,74.43
2022-10-24T07:23:44.092Z,73.72
2022-10-24T07:26:13.655Z,74.53
2022-10-24T07:28:41.741Z,71.60
2022-10-24T07:31:09.267Z,70.28
2022-10-24T07:33:37.549Z,70.64
2022-10-24T07:36:04.279Z,72.02
2022-10-24T07:38:31.021Z,74.62
2022-10-24T07:40:57.755Z,72.00
2022-10-24T07:43:24.366Z,71.57
2022-10-24T07:45:52.114Z,71.61
2022-10-24T07:48:19.657Z,69.93
2022-10-24T07:50:47.578Z,70.66
2022-10-24T07:53:15.448Z,69.30
2022-10-24T07:55:43.918Z,70.11
2022-10-24T07:58:11.707Z,70.74
2022-10-24T08:00:44.014Z,70.76
2022-10-24T08:03:11.816Z,71.90
2022-10-24T08:05:40.702Z,70.90
2022-10-24T08:10:54.039Z,68.48
2022-10-24T08:13:20.733Z,69.42
2022-10-24T08:15:47.338Z,69.30
2022-10-24T08:18:13.969Z,70.13
2022-10-24T08:20:40.585Z,73.02
2022-10-24T08:23:09.528Z,73.42
2022-10-24T08:25:40.043Z,74.41
2022-10-24T08:28:09.001Z,73.85
2022-10-24T08:30:35.962Z,76.58
2022-10-24T08:33:02.597Z,78.57
2022-10-24T08:35:29.207Z,77.30
2022-10-24T08:37:55.830Z,80.26
2022-10-24T08:40:22.436Z,81.15
2022-10-24T08:42:49.846Z,82.81
2022-10-24T08:45:32.719Z,84.19
2022-10-24T08:48:09.311Z,84.46
2022-10-24T08:50:40.582Z,84.10
2022-10-24T08:53:14.481Z,84.97
2022-10-24T08:55:49.719Z,83.64
2022-10-24T08:58:20.276Z,83.26
2022-10-24T09:00:51.434Z,81.81
2022-10-24T09:03:57.940Z,81.09
2022-10-24T09:06:31.396Z,81.11
2022-10-24T09:08:59.547Z,81.57
2022-10-24T09:11:48.181Z,79.87
2022-10-24T09:14:18.674Z,80.85
2022-10-24T09:16:58.847Z,80.35
2022-10-24T09:19:28.641Z,80.31
2022-10-24T09:21:59.352Z,80.19
2022-10-24T09:24:37.845Z,80.03
2022-10-24T09:27:13.813Z,81.48
2022-10-24T09:29:40.693Z,81.61
2022-10-24T09:32:25.864Z,82.18
2022-10-24T09:34:53.704Z,82.25
2022-10-24T09:37:42.746Z,82.28
2022-10-24T09:40:33.591Z,82.76
2022-10-24T09:43:16.942Z,81.44
2022-10-24T09:45:48.372Z,81.62
2022-10-24T09:48:30.115Z,80.54
2022-10-24T09:50:59.653Z,79.74
2022-10-24T09:53:33.518Z,80.63
2022-10-24T09:56:15.040Z,80.59
2022-10-24T09:58:42.753Z,80.65
2022-10-24T10:01:21.653Z,79.40
2022-10-24T10:04:07.550Z,82.83
2022-10-24T10:06:45.242Z,84.67
2022-10-24T10:09:23.960Z,84.33
2022-10-24T10:12:02.863Z,84.60
2022-10-24T10:14:30.484Z,81.82
2022-10-24T10:17:03.572Z,82.24
2022-10-24T10:19:37.203Z,83.45
2022-10-24T10:22:28.685Z,83.76
2022-10-24T10:24:56.159Z,81.15
2022-10-24T10:27:41.945Z,82.00
2022-10-24T10:30:08.855Z,80.18
2022-10-24T10:32:54.458Z,80.22
2022-10-24T10:35:46.961Z,80.77
2022-10-24T10:38:28.773Z,80.14
2022-10-24T10:41:15.635Z,82.84
2022-10-24T10:44:05.601Z,80.70
2022-10-24T10:47:00.662Z,80.57
2022-10-24T10:49:32.459Z,79.71
2022-10-24T10:51:59.153Z,81.08
2022-10-24T10:54:37.811Z,83.98
2022-10-24T10:57:14.770Z,84.82
2022-10-24T11:00:15.181Z,83.85
2022-10-24T11:03:01.498Z,84.75
2022-10-24T11:06:02.010Z,84.02
2022-10-24T11:08:46.427Z,82.01
2022-10-24T11:11:21.875Z,82.08
2022-10-24T11:14:21.478Z,80.49
2022-10-24T11:16:53.728Z,82.15
2022-10-24T11:19:34.720Z,80.93
2022-10-24T11:22:05.469Z,77.92
2022-10-24T11:24:43.262Z,78.34
2022-10-24T11:27:23.271Z,78.35
2022-10-24T11:30:05.702Z,78.21
2022-10-24T11:32:59.603Z,77.15
2022-10-24T11:35:34.607Z,78.15
2022-10-24T11:38:17.068Z,82.16
2022-10-24T11:40:51.666Z,82.46
2022-10-24T11:43:40.924Z,82.13
2022-10-24T11:46:18.936Z,81.59
2022-10-24T11:48:52.665Z,82.57
2022-10-24T11:51:26.326Z,82.71
2022-10-24T11:54:03.630Z,83.65
2022-10-24T11:56:40.938Z,83.56
2022-10-24T11:59:16.053Z,83.85
2022-10-24T12:01:51.598Z,82.99
2022-10-24T12:04:21.124Z,83.40
2022-10-24T12:07:05.657Z,83.69
2022-10-24T12:09:47.557Z,82.25
2022-10-24T12:12:35.999Z,83.16
2022-10-24T12:15:11.753Z,83.29
2022-10-24T12:17:53.679Z,83.21
2022-10-24T12:20:24.268Z,82.50
2022-10-24T12:22:53.348Z,83.03
2022-10-24T12:25:38.055Z,84.38
2022-10-24T12:28:07.084Z,81.01
2022-10-24T12:30:36.348Z,79.10
2022-10-24T12:33:22.116Z,80.58
2022-10-24T12:35:52.009Z,81.12
2022-10-24T12:38:27.664Z,79.97
2022-10-24T12:40:59.706Z,80.68
2022-10-24T12:43:47.993Z,79.63
2022-10-24T12:46:15.903Z,78.18
2022-10-24T12:49:08.199Z,78.10
2022-10-24T12:51:40.076Z,77.87
2022-10-24T12:54:12.669Z,79.97
2022-10-24T12:56:51.627Z,77.88
2022-10-24T12:59:30.323Z,79.26
2022-10-24T13:02:15.506Z,80.06
2022-10-24T13:04:57.058Z,79.34
2022-10-24T13:07:26.516Z,76.05
2022-10-24T13:10:24.139Z,77.99
2022-10-24T13:15:55.816Z,76.04
2022-10-24T13:18:34.439Z,76.30
2022-10-24T13:21:20.442Z,78.55
2022-10-24T13:23:48.970Z,79.96
2022-10-24T13:26:38.972Z,79.27
2022-10-24T13:29:13.184Z,80.64
2022-10-24T13:31:43.527Z,80.83
2022-10-24T13:34:23.108Z,81.71
2022-10-24T13:37:00.344Z,82.66
2022-10-24T13:39:37.453Z,82.19
2022-10-24T13:42:22.870Z,80.81
2022-10-24T13:44:52.670Z,79.96
2022-10-24T13:47:42.869Z,79.63
2022-10-24T13:50:23.459Z,79.73
2022-10-24T13:52:55.366Z,79.36
2022-10-24T13:55:32.425Z,81.40
2022-10-24T13:58:17.847Z,80.86
2022-10-24T14:01:20.033Z,78.28
2022-10-24T14:03:49.612Z,76.25
2022-10-24T14:06:16.576Z,77.73
2022-10-24T14:09:01.459Z,77.39
2022-10-24T14:11:31.603Z,76.63
2022-10-24T14:14:04.279Z,76.69
2022-10-24T14:16:35.393Z,76.51
2022-10-24T14:19:28.293Z,75.33
2022-10-24T14:21:56.689Z,74.93
2022-10-24T14:24:23.621Z,74.79
2022-10-24T14:26:52.600Z,73.36
2022-10-24T14:29:31.328Z,74.93
2022-10-24T14:32:04.214Z,74.83
2022-10-24T14:34:36.305Z,74.09
2022-10-24T14:37:07.364Z,75.81
2022-10-24T14:39:35.092Z,75.31
2022-10-24T14:42:02.918Z,76.02
2022-10-24T14:44:30.146Z,76.74
2022-10-24T14:47:31.203Z,76.41
2022-10-24T14:49:58.340Z,76.26
2022-10-24T14:52:34.914Z,75.85
2022-10-24T14:55:27.413Z,74.43
2022-10-24T14:57:54.881Z,73.17
2022-10-24T15:00:27.583Z,74.51
2022-10-24T15:02:58.031Z,73.21
2022-10-24T15:05:31.951Z,72.75
2022-10-24T15:08:23.681Z,73.40
2022-10-24T15:11:04.190Z,72.69
2022-10-24T15:13:33.967Z,74.22
2022-10-24T15:16:01.425Z,74.05
2022-10-24T15:18:41.042Z,73.77
2022-10-24T15:21:15.919Z,72.65
2022-10-24T15:23:51.996Z,73.34
2022-10-24T15:26:27.155Z,71.83
2022-10-24T15:29:06.873Z,71.88
2022-10-24T15:31:37.413Z,72.77
2022-10-24T15:34:04.739Z,73.32
2022-10-24T15:36:43.209Z,72.51
2022-10-24T15:39:09.736Z,71.53
2022-10-24T15:41:36.977Z,73.28
2022-10-24T15:44:15.643Z,74.85
2022-10-24T15:46:42.308Z,73.77
2022-10-24T15:49:08.922Z,75.48
2022-10-24T15:51:38.655Z,72.62
2022-10-24T15:54:12.291Z,71.47
2022-10-24T15:56:39.207Z,71.68
2022-10-24T15:59:06.084Z,72.89
2022-10-24T16:01:38.538Z,71.61
2022-10-24T16:04:11.169Z,72.72
2022-10-24T16:06:37.759Z,73.59
2022-10-24T16:09:11.266Z,72.95
2022-10-24T16:11:37.887Z,74.63
2022-10-24T16:14:04.506Z,74.91
2022-10-24T16:16:31.437Z,76.04
2022-10-24T16:18:58.070Z,74.11
2022-10-24T16:21:24.730Z,74.60
2022-10-24T16:26:22.965Z,75.17
2022-10-24T16:28:49.549Z,78.05
2022-10-24T16:31:17.267Z,79.05
2022-10-24T16:33:47.122Z,80.12
2022-10-24T16:36:16.638Z,82.07
2022-10-24T16:38:45.388Z,81.84
2022-10-24T16:41:16.989Z,76.86
2022-10-24T16:43:49.133Z,79.31
2022-10-24T16:46:20.248Z,80.08
2022-10-24T16:48:48.009Z,79.40
2022-10-24T16:51:17.982Z,80.95
2022-10-24T16:53:44.832Z,81.72
2022-10-24T16:56:13.807Z,81.04
2022-10-24T16:58:40.670Z,81.40
2022-10-24T17:01:12.861Z,80.30
2022-10-24T17:03:40.756Z,80.64
2022-10-24T17:06:07.763Z,80.38
2022-10-24T17:08:34.542Z,79.79
2022-10-24T17:11:01.403Z,77.34
2022-10-24T17:13:28.923Z,77.06
2022-10-24T17:15:56.112Z,80.31
2022-10-24T17:18:23.268Z,79.58
2022-10-24T17:20:50.315Z,79.01
2022-10-24T17:23:19.384Z,78.40
2022-10-24T17:25:46.581Z,75.93
2022-10-24T17:28:16.192Z,76.04
2022-10-24T17:30:43.260Z,78.03
2022-10-24T17:33:11.722Z,77.96
2022-10-24T17:35:45.722Z,77.70
2022-10-24T17:38:34.148Z,77.27
2022-10-24T17:41:12.883Z,77.60
2022-10-24T17:43:39.606Z,75.13
2022-10-24T17:46:11.005Z,75.46
2022-10-24T17:48:37.601Z,76.43
2022-10-24T17:51:04.251Z,75.84
2022-10-24T17:53:30.876Z,75.20
2022-10-24T17:55:57.456Z,77.15
2022-10-24T17:58:25.814Z,77.17
2022-10-24T18:00:52.433Z,78.30
2022-10-24T18:03:19.051Z,80.83
2022-10-24T18:05:45.685Z,81.25
2022-10-24T18:08:15.315Z,81.62
2022-10-24T18:10:42.385Z,79.97
2022-10-24T18:13:09.912Z,82.07
2022-10-24T18:15:37.269Z,82.99
2022-10-24T18:18:05.062Z,83.52
2022-10-24T18:20:31.717Z,81.36
2022-10-24T18:22:59.280Z,79.33
2022-10-24T18:25:26.421Z,77.11
2022-10-24T18:27:53.867Z,77.10
2022-10-24T18:30:20.505Z,75.62
2022-10-24T18:32:47.701Z,76.52
2022-10-24T18:35:14.554Z,76.46
2022-10-24T18:37:41.215Z,79.42
2022-10-24T18:40:09.053Z,80.62
2022-10-24T18:43:00.909Z,79.23
2022-10-24T18:45:28.239Z,78.98
2022-10-24T18:47:55.091Z,77.02
2022-10-24T18:50:24.599Z,75.81
2022-10-24T18:53:07.505Z,78.68
2022-10-24T18:55:35.587Z,75.79
2022-10-24T18:58:03.121Z,78.70
2022-10-24T19:00:33.041Z,78.09
2022-10-24T19:03:21.335Z,76.26
2022-10-24T19:06:03.462Z,77.31
2022-10-24T19:08:30.093Z,77.72
2022-10-24T19:10:56.920Z,79.58
2022-10-24T19:13:25.897Z,80.83
2022-10-24T19:15:59.237Z,78.73
2022-10-24T19:18:29.064Z,78.50
2022-10-24T19:20:55.754Z,78.04
2022-10-24T19:23:22.351Z,77.47
2022-10-24T19:25:49.009Z,76.86
2022-10-24T19:28:18.403Z,78.43
2022-10-24T19:30:46.390Z,79.66
2022-10-24T19:33:14.883Z,78.77
2022-10-24T19:35:43.388Z,77.04
2022-10-24T19:38:10.034Z,76.23
2022-10-24T19:40:36.702Z,76.21
2022-10-24T19:43:03.309Z,77.58
2022-10-24T19:45:29.960Z,76.01
2022-10-24T19:47:56.761Z,74.80
2022-10-24T19:50:24.665Z,75.67
2022-10-24T19:52:51.328Z,74.97
2022-10-24T19:55:17.962Z,74.83
2022-10-24T19:57:44.826Z,76.36
2022-10-24T20:00:12.521Z,76.47
2022-10-24T20:02:39.401Z,76.14
2022-10-24T20:05:06.568Z,76.13
2022-10-24T20:07:33.292Z,77.47
2022-10-24T20:10:00.092Z,75.59
2022-10-24T20:12:26.995Z,76.09
2022-10-24T20:14:53.672Z,77.40
2022-10-24T20:17:20.268Z,77.08
2022-10-24T20:19:46.844Z,78.70
2022-10-24T20:22:13.438Z,77.12
2022-10-24T20:24:40.019Z,75.37
2022-10-24T20:29:38.180Z,75.08
2022-10-24T20:32:04.980Z,75.54
2022-10-24T20:34:31.657Z,77.32
2022-10-24T20:36:58.316Z,77.37
2022-10-24T20:39:24.920Z,75.96
2022-10-24T20:41:54.356Z,76.11
2022-10-24T20:44:21.853Z,76.74
2022-10-24T20:46:48.533Z,76.04
2022-10-24T20:49:15.136Z,76.05
2022-10-24T20:51:42.281Z,75.74
2022-10-24T20:54:10.332Z,74.46
2022-10-24T20:56:42.008Z,74.39
2022-10-24T20:59:11.666Z,76.45
2022-10-24T21:01:38.334Z,77.17
2022-10-24T21:04:05.147Z,76.92
2022-10-24T21:06:33.760Z,75.78
2022-10-24T21:11:32.774Z,75.97
2022-10-24T21:14:09.839Z,74.70
2022-10-24T21:16:36.738Z,73.74
2022-10-24T21:19:04.398Z,74.22
2022-10-24T21:21:31.290Z,74.67
2022-10-24T21:24:03.880Z,74.22
2022-10-24T21:26:34.839Z,74.02
2022-10-24T21:29:14.825Z,74.89
2022-10-24T21:31:49.258Z,73.38
2022-10-24T21:34:16.027Z,73.84
2022-10-24T21:36:42.707Z,73.46
2022-10-24T21:39:16.549Z,72.96
2022-10-24T21:41:44.342Z,75.53
2022-10-24T21:44:13.875Z,74.07
2022-10-24T21:46:40.567Z,74.04
2022-10-24T21:49:07.288Z,75.54
2022-10-24T21:51:36.487Z,74.49
2022-10-24T21:54:06.916Z,73.76
2022-10-24T21:56:36.167Z,75.11
2022-10-24T21:59:06.002Z,75.71
2022-10-24T22:01:35.624Z,74.01
2022-10-24T22:04:04.035Z,73.53
2022-10-24T22:06:35.052Z,73.30
2022-10-24T22:09:03.353Z,76.20
2022-10-24T22:11:31.906Z,76.29
2022-10-24T22:13:59.323Z,76.99
2022-10-24T22:16:28.563Z,77.56
2022-10-24T22:18:56.326Z,75.49
2022-10-24T22:21:27.025Z,77.63
2022-10-24T22:23:58.906Z,78.67
2022-10-24T22:26:26.421Z,78.40
2022-10-24T22:28:53.926Z,75.46
2022-10-24T22:31:20.857Z,75.24
2022-10-24T22:33:48.005Z,75.88
2022-10-24T22:36:23.568Z,74.53
2022-10-24T22:38:56.781Z,76.86
2022-10-24T22:41:23.678Z,76.61
2022-10-24T22:43:50.756Z,78.79
2022-10-24T22:46:47.316Z,80.89
2022-10-24T22:49:30.596Z,81.72
2022-10-24T22:51:57.421Z,83.81
2022-10-24T22:54:25.482Z,80.95
2022-10-24T22:56:52.433Z,80.89
2022-10-24T22:59:19.339Z,81.45
2022-10-24T23:02:16.437Z,78.90
2022-10-24T23:04:49.158Z,79.17
2022-10-24T23:07:33.794Z,82.72
2022-10-24T23:10:06.042Z,83.50
2022-10-24T23:12:35.622Z,84.19
2022-10-24T23:15:02.670Z,83.41
2022-10-24T23:17:30.381Z,79.30
2022-10-24T23:19:57.604Z,77.70
2022-10-24T23:22:27.252Z,78.49
2022-10-24T23:24:59.573Z,79.19
2022-10-24T23:27:41.521Z,79.01
2022-10-24T23:30:20.701Z,82.12
2022-10-24T23:32:49.255Z,79.63
2022-10-24T23:35:18.563Z,77.88
2022-10-24T23:37:51.010Z,76.13
2022-10-24T23:40:33.878Z,76.64
2022-10-24T23:43:02.263Z,75.42
2022-10-24T23:45:42.935Z,74.63
2022-10-24T23:48:37.434Z,75.58
2022-10-24T23:51:29.526Z,75.20
2022-10-24T23:53:56.952Z,75.04
2022-10-24T23:56:26.344Z,75.15
2022-10-24T23:58:53.496Z,73.12
